sensor_id;sensor_type;location;lat;lon;timestamp;P1;durP1;ratioP1;P2;durP2;ratioP2
52934;SDS011;38802;50.198;19.796;2023-04-21T00:00:19;17.40;;;8.40;;
52934;SDS011;38802;50.198;19.796;2023-04-21T00:03:07;14.30;;;7.10;;
52934;SDS011;38802;50.198;19.796;2023-04-21T00:05:35;14.50;;;7.40;;
52934;SDS011;38802;50.198;19.796;2023-04-21T00:08:05;11.60;;;7.30;;
52934;SDS011;38802;50.198;19.796;2023-04-21T00:10:33;11.60;;;7.00;;
52934;SDS011;38802;50.198;19.796;2023-04-21T00:13:01;21.60;;;7.50;;
52934;SDS011;38802;50.198;19.796;2023-04-21T00:15:29;16.00;;;8.00;;
52934;SDS011;38802;50.198;19.796;2023-04-21T00:17:57;7.90;;;6.60;;
52934;SDS011;38802;50.198;19.796;2023-04-21T00:20:26;14.10;;;7.90;;
52934;SDS011;38802;50.198;19.796;2023-04-21T00:22:55;13.00;;;8.00;;
52934;SDS011;38802;50.198;19.796;2023-04-21T00:25:24;12.30;;;7.90;;
52934;SDS011;38802;50.198;19.796;2023-04-21T00:27:53;14.40;;;7.80;;
52934;SDS011;38802;50.198;19.796;2023-04-21T00:30:20;17.90;;;8.70;;
52934;SDS011;38802;50.198;19.796;2023-04-21T00:32:49;16.70;;;9.50;;
52934;SDS011;38802;50.198;19.796;2023-04-21T00:35:17;10.50;;;8.50;;
52934;SDS011;38802;50.198;19.796;2023-04-21T00:37:45;13.30;;;8.20;;
52934;SDS011;38802;50.198;19.796;2023-04-21T00:40:13;11.70;;;8.40;;
52934;SDS011;38802;50.198;19.796;2023-04-21T00:42:40;14.80;;;9.10;;
52934;SDS011;38802;50.198;19.796;2023-04-21T00:45:09;11.50;;;8.30;;
52934;SDS011;38802;50.198;19.796;2023-04-21T00:47:37;11.50;;;8.20;;
52934;SDS011;38802;50.198;19.796;2023-04-21T00:50:05;12.60;;;7.70;;
52934;SDS011;38802;50.198;19.796;2023-04-21T00:52:38;14.40;;;7.70;;
52934;SDS011;38802;50.198;19.796;2023-04-21T00:55:07;15.70;;;9.90;;
52934;SDS011;38802;50.198;19.796;2023-04-21T00:57:36;14.00;;;10.00;;
52934;SDS011;38802;50.198;19.796;2023-04-21T01:00:05;17.30;;;9.50;;
52934;SDS011;38802;50.198;19.796;2023-04-21T01:02:37;11.70;;;10.20;;
52934;SDS011;38802;50.198;19.796;2023-04-21T01:05:06;16.10;;;10.40;;
52934;SDS011;38802;50.198;19.796;2023-04-21T01:07:37;14.20;;;8.50;;
52934;SDS011;38802;50.198;19.796;2023-04-21T01:10:07;15.10;;;9.90;;
52934;SDS011;38802;50.198;19.796;2023-04-21T01:12:42;32.10;;;19.90;;
52934;SDS011;38802;50.198;19.796;2023-04-21T01:15:13;24.30;;;14.30;;
52934;SDS011;38802;50.198;19.796;2023-04-21T01:17:42;19.20;;;9.50;;
52934;SDS011;38802;50.198;19.796;2023-04-21T01:20:16;12.40;;;8.60;;
52934;SDS011;38802;50.198;19.796;2023-04-21T01:22:44;16.30;;;9.60;;
52934;SDS011;38802;50.198;19.796;2023-04-21T01:25:12;12.50;;;8.30;;
52934;SDS011;38802;50.198;19.796;2023-04-21T01:27:40;12.60;;;9.20;;
52934;SDS011;38802;50.198;19.796;2023-04-21T01:30:08;17.60;;;8.20;;
52934;SDS011;38802;50.198;19.796;2023-04-21T01:32:36;13.20;;;8.50;;
52934;SDS011;38802;50.198;19.796;2023-04-21T01:35:05;17.50;;;8.40;;
52934;SDS011;38802;50.198;19.796;2023-04-21T01:37:33;11.60;;;8.50;;
52934;SDS011;38802;50.198;19.796;2023-04-21T01:40:04;16.70;;;8.50;;
52934;SDS011;38802;50.198;19.796;2023-04-21T01:42:36;14.20;;;9.70;;
52934;SDS011;38802;50.198;19.796;2023-04-21T01:45:07;13.40;;;9.20;;
52934;SDS011;38802;50.198;19.796;2023-04-21T01:47:37;16.60;;;10.40;;
52934;SDS011;38802;50.198;19.796;2023-04-21T01:50:06;19.80;;;12.50;;
52934;SDS011;38802;50.198;19.796;2023-04-21T01:52:34;26.60;;;12.50;;
52934;SDS011;38802;50.198;19.796;2023-04-21T01:55:03;13.80;;;11.00;;
52934;SDS011;38802;50.198;19.796;2023-04-21T01:57:31;16.80;;;10.30;;
52934;SDS011;38802;50.198;19.796;2023-04-21T01:59:59;27.80;;;13.80;;
52934;SDS011;38802;50.198;19.796;2023-04-21T02:02:27;30.30;;;14.60;;
52934;SDS011;38802;50.198;19.796;2023-04-21T02:04:55;22.90;;;12.20;;
52934;SDS011;38802;50.198;19.796;2023-04-21T02:07:24;21.50;;;13.30;;
52934;SDS011;38802;50.198;19.796;2023-04-21T02:09:53;17.00;;;11.00;;
52934;SDS011;38802;50.198;19.796;2023-04-21T02:12:21;15.20;;;12.30;;
52934;SDS011;38802;50.198;19.796;2023-04-21T02:14:49;19.80;;;13.50;;
52934;SDS011;38802;50.198;19.796;2023-04-21T02:17:17;26.40;;;13.80;;
52934;SDS011;38802;50.198;19.796;2023-04-21T02:19:45;18.60;;;13.10;;
52934;SDS011;38802;50.198;19.796;2023-04-21T02:22:14;23.20;;;12.70;;
52934;SDS011;38802;50.198;19.796;2023-04-21T02:24:42;24.00;;;13.60;;
52934;SDS011;38802;50.198;19.796;2023-04-21T02:27:11;29.20;;;16.40;;
52934;SDS011;38802;50.198;19.796;2023-04-21T02:29:39;26.90;;;16.60;;
52934;SDS011;38802;50.198;19.796;2023-04-21T02:32:08;33.30;;;19.50;;
52934;SDS011;38802;50.198;19.796;2023-04-21T02:34:51;29.90;;;19.30;;
52934;SDS011;38802;50.198;19.796;2023-04-21T02:37:19;32.90;;;16.90;;
52934;SDS011;38802;50.198;19.796;2023-04-21T02:39:47;25.90;;;14.70;;
52934;SDS011;38802;50.198;19.796;2023-04-21T02:42:15;23.10;;;15.90;;
52934;SDS011;38802;50.198;19.796;2023-04-21T02:44:43;28.70;;;17.00;;
52934;SDS011;38802;50.198;19.796;2023-04-21T02:47:13;21.60;;;13.80;;
52934;SDS011;38802;50.198;19.796;2023-04-21T02:49:43;26.00;;;13.00;;
52934;SDS011;38802;50.198;19.796;2023-04-21T02:52:12;25.80;;;17.40;;
52934;SDS011;38802;50.198;19.796;2023-04-21T02:54:40;17.20;;;12.80;;
52934;SDS011;38802;50.198;19.796;2023-04-21T02:57:08;26.60;;;18.30;;
52934;SDS011;38802;50.198;19.796;2023-04-21T02:59:36;21.20;;;14.90;;
52934;SDS011;38802;50.198;19.796;2023-04-21T03:02:04;13.20;;;10.70;;
52934;SDS011;38802;50.198;19.796;2023-04-21T03:04:32;15.10;;;10.30;;
52934;SDS011;38802;50.198;19.796;2023-04-21T03:07:01;13.70;;;8.60;;
52934;SDS011;38802;50.198;19.796;2023-04-21T03:09:29;12.90;;;8.80;;
52934;SDS011;38802;50.198;19.796;2023-04-21T03:11:57;15.50;;;8.80;;
52934;SDS011;38802;50.198;19.796;2023-04-21T03:14:25;15.00;;;9.20;;
52934;SDS011;38802;50.198;19.796;2023-04-21T03:16:53;13.20;;;7.90;;
52934;SDS011;38802;50.198;19.796;2023-04-21T03:19:21;15.90;;;9.70;;
52934;SDS011;38802;50.198;19.796;2023-04-21T03:21:49;12.60;;;9.50;;
52934;SDS011;38802;50.198;19.796;2023-04-21T03:24:17;15.70;;;10.10;;
52934;SDS011;38802;50.198;19.796;2023-04-21T03:26:46;20.30;;;11.40;;
52934;SDS011;38802;50.198;19.796;2023-04-21T03:29:14;19.00;;;14.20;;
52934;SDS011;38802;50.198;19.796;2023-04-21T03:31:42;21.90;;;13.40;;
52934;SDS011;38802;50.198;19.796;2023-04-21T03:34:10;21.70;;;13.40;;
52934;SDS011;38802;50.198;19.796;2023-04-21T03:36:38;29.10;;;16.80;;
52934;SDS011;38802;50.198;19.796;2023-04-21T03:39:06;30.60;;;15.50;;
52934;SDS011;38802;50.198;19.796;2023-04-21T03:41:47;20.80;;;11.70;;
52934;SDS011;38802;50.198;19.796;2023-04-21T03:44:15;21.60;;;13.60;;
52934;SDS011;38802;50.198;19.796;2023-04-21T03:46:43;22.70;;;13.30;;
52934;SDS011;38802;50.198;19.796;2023-04-21T03:49:10;25.20;;;10.10;;
52934;SDS011;38802;50.198;19.796;2023-04-21T03:51:38;22.20;;;9.80;;
52934;SDS011;38802;50.198;19.796;2023-04-21T03:54:07;19.00;;;9.90;;
52934;SDS011;38802;50.198;19.796;2023-04-21T03:56:35;27.70;;;16.70;;
52934;SDS011;38802;50.198;19.796;2023-04-21T03:59:03;16.60;;;11.50;;
52934;SDS011;38802;50.198;19.796;2023-04-21T04:01:32;22.70;;;14.40;;
52934;SDS011;38802;50.198;19.796;2023-04-21T04:04:01;21.00;;;12.90;;
52934;SDS011;38802;50.198;19.796;2023-04-21T04:06:29;30.90;;;19.10;;
52934;SDS011;38802;50.198;19.796;2023-04-21T04:08:58;21.80;;;13.20;;
52934;SDS011;38802;50.198;19.796;2023-04-21T04:11:29;20.90;;;12.90;;
52934;SDS011;38802;50.198;19.796;2023-04-21T04:13:58;18.10;;;10.70;;
52934;SDS011;38802;50.198;19.796;2023-04-21T04:16:26;18.60;;;10.80;;
52934;SDS011;38802;50.198;19.796;2023-04-21T04:18:55;15.70;;;9.30;;
52934;SDS011;38802;50.198;19.796;2023-04-21T04:21:23;15.60;;;10.20;;
52934;SDS011;38802;50.198;19.796;2023-04-21T04:23:51;19.80;;;9.80;;
52934;SDS011;38802;50.198;19.796;2023-04-21T04:26:19;24.60;;;15.50;;
52934;SDS011;38802;50.198;19.796;2023-04-21T04:28:51;15.20;;;11.90;;
52934;SDS011;38802;50.198;19.796;2023-04-21T04:31:20;23.50;;;16.90;;
52934;SDS011;38802;50.198;19.796;2023-04-21T04:33:49;38.10;;;23.30;;
52934;SDS011;38802;50.198;19.796;2023-04-21T04:36:19;26.70;;;12.80;;
52934;SDS011;38802;50.198;19.796;2023-04-21T04:38:47;12.20;;;8.60;;
52934;SDS011;38802;50.198;19.796;2023-04-21T04:41:15;17.50;;;10.00;;
52934;SDS011;38802;50.198;19.796;2023-04-21T04:43:43;12.60;;;8.90;;
52934;SDS011;38802;50.198;19.796;2023-04-21T04:46:11;19.10;;;9.30;;
52934;SDS011;38802;50.198;19.796;2023-04-21T04:48:40;16.20;;;8.30;;
52934;SDS011;38802;50.198;19.796;2023-04-21T04:51:08;17.20;;;9.00;;
52934;SDS011;38802;50.198;19.796;2023-04-21T04:53:35;13.70;;;8.90;;
52934;SDS011;38802;50.198;19.796;2023-04-21T04:56:04;14.10;;;8.30;;
52934;SDS011;38802;50.198;19.796;2023-04-21T04:58:32;16.70;;;8.80;;
52934;SDS011;38802;50.198;19.796;2023-04-21T05:01:09;12.00;;;8.00;;
52934;SDS011;38802;50.198;19.796;2023-04-21T05:03:41;20.30;;;10.50;;
52934;SDS011;38802;50.198;19.796;2023-04-21T05:06:10;20.30;;;10.40;;
52934;SDS011;38802;50.198;19.796;2023-04-21T05:08:38;22.30;;;12.50;;
52934;SDS011;38802;50.198;19.796;2023-04-21T05:17:28;17.20;;;11.10;;
52934;SDS011;38802;50.198;19.796;2023-04-21T05:19:58;24.70;;;12.50;;
52934;SDS011;38802;50.198;19.796;2023-04-21T05:22:26;21.80;;;11.00;;
52934;SDS011;38802;50.198;19.796;2023-04-21T05:24:54;20.70;;;9.80;;
52934;SDS011;38802;50.198;19.796;2023-04-21T05:27:22;26.40;;;10.10;;
52934;SDS011;38802;50.198;19.796;2023-04-21T05:29:50;17.20;;;9.20;;
52934;SDS011;38802;50.198;19.796;2023-04-21T05:32:17;16.70;;;10.40;;
52934;SDS011;38802;50.198;19.796;2023-04-21T05:34:46;15.90;;;8.30;;
52934;SDS011;38802;50.198;19.796;2023-04-21T05:37:14;21.40;;;8.50;;
52934;SDS011;38802;50.198;19.796;2023-04-21T05:39:42;12.70;;;7.90;;
52934;SDS011;38802;50.198;19.796;2023-04-21T05:42:10;16.20;;;8.80;;
52934;SDS011;38802;50.198;19.796;2023-04-21T05:44:38;14.70;;;8.90;;
52934;SDS011;38802;50.198;19.796;2023-04-21T05:47:07;15.80;;;8.10;;
52934;SDS011;38802;50.198;19.796;2023-04-21T05:49:35;18.10;;;7.90;;
52934;SDS011;38802;50.198;19.796;2023-04-21T05:52:03;18.40;;;7.90;;
52934;SDS011;38802;50.198;19.796;2023-04-21T05:54:31;12.70;;;8.40;;
52934;SDS011;38802;50.198;19.796;2023-04-21T05:56:59;13.00;;;8.00;;
52934;SDS011;38802;50.198;19.796;2023-04-21T05:59:28;15.40;;;8.50;;
52934;SDS011;38802;50.198;19.796;2023-04-21T06:01:56;15.30;;;8.50;;
52934;SDS011;38802;50.198;19.796;2023-04-21T06:04:24;15.80;;;8.70;;
52934;SDS011;38802;50.198;19.796;2023-04-21T06:06:52;18.50;;;8.70;;
52934;SDS011;38802;50.198;19.796;2023-04-21T06:09:20;13.60;;;7.60;;
52934;SDS011;38802;50.198;19.796;2023-04-21T06:11:48;15.70;;;7.10;;
52934;SDS011;38802;50.198;19.796;2023-04-21T06:14:17;15.70;;;8.10;;
52934;SDS011;38802;50.198;19.796;2023-04-21T06:16:46;12.70;;;7.20;;
52934;SDS011;38802;50.198;19.796;2023-04-21T06:19:14;18.10;;;6.90;;
52934;SDS011;38802;50.198;19.796;2023-04-21T06:21:42;10.40;;;6.60;;
52934;SDS011;38802;50.198;19.796;2023-04-21T06:24:10;17.50;;;6.80;;
52934;SDS011;38802;50.198;19.796;2023-04-21T06:26:38;15.10;;;7.20;;
52934;SDS011;38802;50.198;19.796;2023-04-21T06:29:06;10.60;;;7.00;;
52934;SDS011;38802;50.198;19.796;2023-04-21T06:31:34;11.70;;;6.40;;
52934;SDS011;38802;50.198;19.796;2023-04-21T06:34:02;13.70;;;6.80;;
52934;SDS011;38802;50.198;19.796;2023-04-21T06:36:30;11.10;;;6.40;;
52934;SDS011;38802;50.198;19.796;2023-04-21T06:38:58;14.40;;;5.60;;
52934;SDS011;38802;50.198;19.796;2023-04-21T06:41:26;14.80;;;6.30;;
52934;SDS011;38802;50.198;19.796;2023-04-21T06:43:55;11.30;;;7.10;;
52934;SDS011;38802;50.198;19.796;2023-04-21T06:46:23;14.00;;;7.40;;
52934;SDS011;38802;50.198;19.796;2023-04-21T06:48:51;12.00;;;6.20;;
52934;SDS011;38802;50.198;19.796;2023-04-21T06:51:19;14.80;;;6.40;;
52934;SDS011;38802;50.198;19.796;2023-04-21T06:53:47;13.20;;;6.90;;
52934;SDS011;38802;50.198;19.796;2023-04-21T06:56:15;17.60;;;6.30;;
52934;SDS011;38802;50.198;19.796;2023-04-21T06:58:43;11.70;;;6.60;;
52934;SDS011;38802;50.198;19.796;2023-04-21T07:01:12;14.20;;;7.00;;
52934;SDS011;38802;50.198;19.796;2023-04-21T07:03:40;10.20;;;6.40;;
52934;SDS011;38802;50.198;19.796;2023-04-21T07:06:08;11.80;;;6.40;;
52934;SDS011;38802;50.198;19.796;2023-04-21T07:08:37;10.00;;;5.70;;
52934;SDS011;38802;50.198;19.796;2023-04-21T07:11:05;8.90;;;5.80;;
52934;SDS011;38802;50.198;19.796;2023-04-21T07:13:34;16.30;;;6.20;;
52934;SDS011;38802;50.198;19.796;2023-04-21T07:17:57;8.80;;;6.60;;
52934;SDS011;38802;50.198;19.796;2023-04-21T07:20:24;10.10;;;6.40;;
52934;SDS011;38802;50.198;19.796;2023-04-21T07:22:51;11.30;;;7.30;;
52934;SDS011;38802;50.198;19.796;2023-04-21T07:25:17;16.00;;;8.20;;
52934;SDS011;38802;50.198;19.796;2023-04-21T07:27:44;11.40;;;7.90;;
52934;SDS011;38802;50.198;19.796;2023-04-21T07:30:11;13.70;;;7.50;;
52934;SDS011;38802;50.198;19.796;2023-04-21T07:32:38;12.30;;;7.30;;
52934;SDS011;38802;50.198;19.796;2023-04-21T07:35:05;11.60;;;7.00;;
52934;SDS011;38802;50.198;19.796;2023-04-21T07:37:32;7.90;;;6.90;;
52934;SDS011;38802;50.198;19.796;2023-04-21T07:39:59;9.70;;;7.00;;
52934;SDS011;38802;50.198;19.796;2023-04-21T07:42:26;13.80;;;6.90;;
52934;SDS011;38802;50.198;19.796;2023-04-21T07:44:52;9.10;;;7.20;;
52934;SDS011;38802;50.198;19.796;2023-04-21T07:47:21;13.30;;;7.40;;
52934;SDS011;38802;50.198;19.796;2023-04-21T07:49:47;12.40;;;8.30;;
52934;SDS011;38802;50.198;19.796;2023-04-21T07:52:14;12.40;;;7.30;;
52934;SDS011;38802;50.198;19.796;2023-04-21T07:54:41;7.30;;;6.30;;
52934;SDS011;38802;50.198;19.796;2023-04-21T07:57:07;7.40;;;6.70;;
52934;SDS011;38802;50.198;19.796;2023-04-21T07:59:36;13.20;;;6.90;;
52934;SDS011;38802;50.198;19.796;2023-04-21T08:02:02;9.60;;;6.70;;
52934;SDS011;38802;50.198;19.796;2023-04-21T08:04:29;10.00;;;7.10;;
52934;SDS011;38802;50.198;19.796;2023-04-21T08:06:57;10.20;;;6.30;;
52934;SDS011;38802;50.198;19.796;2023-04-21T08:09:24;8.90;;;7.40;;
52934;SDS011;38802;50.198;19.796;2023-04-21T08:11:50;10.40;;;7.30;;
52934;SDS011;38802;50.198;19.796;2023-04-21T08:14:17;8.30;;;6.60;;
52934;SDS011;38802;50.198;19.796;2023-04-21T08:16:44;10.50;;;7.80;;
52934;SDS011;38802;50.198;19.796;2023-04-21T08:19:11;12.00;;;7.00;;
52934;SDS011;38802;50.198;19.796;2023-04-21T08:21:38;12.20;;;8.30;;
52934;SDS011;38802;50.198;19.796;2023-04-21T08:24:05;13.10;;;8.00;;
52934;SDS011;38802;50.198;19.796;2023-04-21T08:26:32;14.50;;;7.60;;
52934;SDS011;38802;50.198;19.796;2023-04-21T08:28:59;10.00;;;7.10;;
52934;SDS011;38802;50.198;19.796;2023-04-21T08:31:30;11.20;;;8.30;;
52934;SDS011;38802;50.198;19.796;2023-04-21T08:33:57;16.80;;;8.10;;
52934;SDS011;38802;50.198;19.796;2023-04-21T08:36:28;13.40;;;8.70;;
52934;SDS011;38802;50.198;19.796;2023-04-21T08:38:56;12.40;;;8.90;;
52934;SDS011;38802;50.198;19.796;2023-04-21T08:41:24;8.20;;;7.30;;
52934;SDS011;38802;50.198;19.796;2023-04-21T08:43:52;12.20;;;9.10;;
52934;SDS011;38802;50.198;19.796;2023-04-21T08:46:18;10.10;;;8.50;;
52934;SDS011;38802;50.198;19.796;2023-04-21T08:48:45;10.70;;;8.80;;
52934;SDS011;38802;50.198;19.796;2023-04-21T08:51:13;12.70;;;8.90;;
52934;SDS011;38802;50.198;19.796;2023-04-21T08:53:46;10.20;;;9.00;;
52934;SDS011;38802;50.198;19.796;2023-04-21T08:56:13;14.20;;;9.20;;
52934;SDS011;38802;50.198;19.796;2023-04-21T08:58:40;14.80;;;9.80;;
52934;SDS011;38802;50.198;19.796;2023-04-21T09:01:07;13.70;;;8.60;;
52934;SDS011;38802;50.198;19.796;2023-04-21T09:03:34;9.70;;;7.40;;
52934;SDS011;38802;50.198;19.796;2023-04-21T09:06:01;13.60;;;8.00;;
52934;SDS011;38802;50.198;19.796;2023-04-21T09:08:33;13.80;;;9.30;;
52934;SDS011;38802;50.198;19.796;2023-04-21T09:11:02;14.40;;;9.30;;
52934;SDS011;38802;50.198;19.796;2023-04-21T09:13:30;15.50;;;9.00;;
52934;SDS011;38802;50.198;19.796;2023-04-21T09:15:58;14.00;;;8.80;;
52934;SDS011;38802;50.198;19.796;2023-04-21T09:18:27;12.30;;;8.90;;
52934;SDS011;38802;50.198;19.796;2023-04-21T09:21:06;16.30;;;8.60;;
52934;SDS011;38802;50.198;19.796;2023-04-21T09:26:12;10.60;;;9.00;;
52934;SDS011;38802;50.198;19.796;2023-04-21T09:28:40;13.80;;;8.00;;
52934;SDS011;38802;50.198;19.796;2023-04-21T09:31:12;13.40;;;10.20;;
52934;SDS011;38802;50.198;19.796;2023-04-21T09:33:43;12.20;;;8.60;;
52934;SDS011;38802;50.198;19.796;2023-04-21T09:36:26;12.90;;;9.10;;
52934;SDS011;38802;50.198;19.796;2023-04-21T09:39:02;13.50;;;8.70;;
52934;SDS011;38802;50.198;19.796;2023-04-21T09:41:49;10.80;;;7.80;;
52934;SDS011;38802;50.198;19.796;2023-04-21T09:44:16;9.50;;;8.20;;
52934;SDS011;38802;50.198;19.796;2023-04-21T09:46:43;14.30;;;7.20;;
52934;SDS011;38802;50.198;19.796;2023-04-21T09:49:13;9.10;;;7.60;;
52934;SDS011;38802;50.198;19.796;2023-04-21T09:51:42;10.60;;;6.60;;
52934;SDS011;38802;50.198;19.796;2023-04-21T09:54:30;11.60;;;7.80;;
52934;SDS011;38802;50.198;19.796;2023-04-21T09:57:02;11.20;;;7.50;;
52934;SDS011;38802;50.198;19.796;2023-04-21T09:59:31;9.60;;;6.50;;
52934;SDS011;38802;50.198;19.796;2023-04-21T10:02:04;9.00;;;5.60;;
52934;SDS011;38802;50.198;19.796;2023-04-21T10:04:33;6.50;;;5.60;;
52934;SDS011;38802;50.198;19.796;2023-04-21T10:07:02;8.70;;;4.50;;
52934;SDS011;38802;50.198;19.796;2023-04-21T10:09:30;10.80;;;4.80;;
52934;SDS011;38802;50.198;19.796;2023-04-21T10:12:02;4.60;;;4.10;;
52934;SDS011;38802;50.198;19.796;2023-04-21T10:14:29;7.80;;;4.90;;
52934;SDS011;38802;50.198;19.796;2023-04-21T10:16:57;7.20;;;5.10;;
52934;SDS011;38802;50.198;19.796;2023-04-21T10:19:30;5.40;;;4.70;;
52934;SDS011;38802;50.198;19.796;2023-04-21T10:22:07;5.70;;;4.60;;
52934;SDS011;38802;50.198;19.796;2023-04-21T10:24:36;6.10;;;4.40;;
52934;SDS011;38802;50.198;19.796;2023-04-21T10:27:10;4.70;;;4.30;;
52934;SDS011;38802;50.198;19.796;2023-04-21T10:29:56;8.00;;;5.10;;
52934;SDS011;38802;50.198;19.796;2023-04-21T10:32:38;10.80;;;4.40;;
52934;SDS011;38802;50.198;19.796;2023-04-21T10:35:10;7.90;;;4.80;;
52934;SDS011;38802;50.198;19.796;2023-04-21T10:37:42;7.50;;;4.50;;
52934;SDS011;38802;50.198;19.796;2023-04-21T10:43:44;7.40;;;4.10;;
52934;SDS011;38802;50.198;19.796;2023-04-21T10:57:14;4.80;;;4.40;;
52934;SDS011;38802;50.198;19.796;2023-04-21T10:59:43;4.50;;;4.00;;
52934;SDS011;38802;50.198;19.796;2023-04-21T11:02:12;6.70;;;4.50;;
52934;SDS011;38802;50.198;19.796;2023-04-21T11:04:40;5.90;;;4.90;;
52934;SDS011;38802;50.198;19.796;2023-04-21T11:07:15;4.50;;;3.90;;
52934;SDS011;38802;50.198;19.796;2023-04-21T11:09:43;6.40;;;4.50;;
52934;SDS011;38802;50.198;19.796;2023-04-21T11:12:12;5.30;;;4.70;;
52934;SDS011;38802;50.198;19.796;2023-04-21T11:14:46;5.70;;;5.10;;
52934;SDS011;38802;50.198;19.796;2023-04-21T11:17:16;6.70;;;4.60;;
52934;SDS011;38802;50.198;19.796;2023-04-21T11:19:45;8.60;;;4.90;;
52934;SDS011;38802;50.198;19.796;2023-04-21T11:22:15;7.60;;;5.70;;
52934;SDS011;38802;50.198;19.796;2023-04-21T11:24:46;5.20;;;4.70;;
52934;SDS011;38802;50.198;19.796;2023-04-21T11:27:14;6.40;;;4.40;;
52934;SDS011;38802;50.198;19.796;2023-04-21T11:29:42;6.40;;;4.10;;
52934;SDS011;38802;50.198;19.796;2023-04-21T11:32:11;8.60;;;3.10;;
52934;SDS011;38802;50.198;19.796;2023-04-21T11:34:38;4.30;;;3.80;;
52934;SDS011;38802;50.198;19.796;2023-04-21T11:37:06;3.40;;;3.00;;
52934;SDS011;38802;50.198;19.796;2023-04-21T11:39:34;4.90;;;3.90;;
52934;SDS011;38802;50.198;19.796;2023-04-21T11:42:00;6.40;;;3.60;;
52934;SDS011;38802;50.198;19.796;2023-04-21T11:47:13;4.70;;;3.20;;
52934;SDS011;38802;50.198;19.796;2023-04-21T11:49:54;4.40;;;3.50;;
52934;SDS011;38802;50.198;19.796;2023-04-21T11:54:58;4.40;;;3.80;;
52934;SDS011;38802;50.198;19.796;2023-04-21T11:57:27;5.50;;;3.90;;
52934;SDS011;38802;50.198;19.796;2023-04-21T11:59:59;6.90;;;3.60;;
52934;SDS011;38802;50.198;19.796;2023-04-21T12:02:30;5.00;;;3.30;;
52934;SDS011;38802;50.198;19.796;2023-04-21T12:05:08;5.10;;;4.10;;
52934;SDS011;38802;50.198;19.796;2023-04-21T12:07:37;4.00;;;3.70;;
52934;SDS011;38802;50.198;19.796;2023-04-21T12:12:48;5.10;;;3.60;;
52934;SDS011;38802;50.198;19.796;2023-04-21T12:15:16;4.90;;;3.40;;
52934;SDS011;38802;50.198;19.796;2023-04-21T12:17:46;4.10;;;3.70;;
52934;SDS011;38802;50.198;19.796;2023-04-21T12:20:14;5.40;;;3.70;;
52934;SDS011;38802;50.198;19.796;2023-04-21T12:22:42;4.10;;;3.20;;
52934;SDS011;38802;50.198;19.796;2023-04-21T12:25:10;5.70;;;3.10;;
52934;SDS011;38802;50.198;19.796;2023-04-21T12:27:36;5.50;;;3.10;;
52934;SDS011;38802;50.198;19.796;2023-04-21T12:30:03;5.50;;;3.10;;
52934;SDS011;38802;50.198;19.796;2023-04-21T12:32:31;5.20;;;2.90;;
52934;SDS011;38802;50.198;19.796;2023-04-21T12:34:58;3.20;;;2.90;;
52934;SDS011;38802;50.198;19.796;2023-04-21T12:37:25;6.70;;;3.70;;
52934;SDS011;38802;50.198;19.796;2023-04-21T12:39:52;3.70;;;3.40;;
52934;SDS011;38802;50.198;19.796;2023-04-21T12:42:19;6.90;;;3.80;;
52934;SDS011;38802;50.198;19.796;2023-04-21T12:44:45;4.40;;;3.20;;
52934;SDS011;38802;50.198;19.796;2023-04-21T12:47:12;3.70;;;3.30;;
52934;SDS011;38802;50.198;19.796;2023-04-21T12:49:38;3.50;;;3.30;;
52934;SDS011;38802;50.198;19.796;2023-04-21T12:52:05;6.20;;;4.70;;
52934;SDS011;38802;50.198;19.796;2023-04-21T12:54:32;5.10;;;3.90;;
52934;SDS011;38802;50.198;19.796;2023-04-21T12:56:59;5.90;;;3.60;;
52934;SDS011;38802;50.198;19.796;2023-04-21T12:59:25;7.60;;;3.80;;
52934;SDS011;38802;50.198;19.796;2023-04-21T13:01:52;4.50;;;3.60;;
52934;SDS011;38802;50.198;19.796;2023-04-21T13:04:19;5.40;;;3.50;;
52934;SDS011;38802;50.198;19.796;2023-04-21T13:06:47;5.70;;;4.40;;
52934;SDS011;38802;50.198;19.796;2023-04-21T13:09:14;5.00;;;4.60;;
52934;SDS011;38802;50.198;19.796;2023-04-21T13:11:44;5.40;;;4.30;;
52934;SDS011;38802;50.198;19.796;2023-04-21T13:14:11;6.30;;;3.30;;
52934;SDS011;38802;50.198;19.796;2023-04-21T13:16:39;5.60;;;3.60;;
52934;SDS011;38802;50.198;19.796;2023-04-21T13:19:06;7.70;;;3.80;;
52934;SDS011;38802;50.198;19.796;2023-04-21T13:21:32;5.00;;;3.60;;
52934;SDS011;38802;50.198;19.796;2023-04-21T13:23:59;4.30;;;3.80;;
52934;SDS011;38802;50.198;19.796;2023-04-21T13:26:34;4.40;;;3.50;;
52934;SDS011;38802;50.198;19.796;2023-04-21T13:29:01;8.90;;;4.00;;
52934;SDS011;38802;50.198;19.796;2023-04-21T13:31:28;6.20;;;3.40;;
52934;SDS011;38802;50.198;19.796;2023-04-21T13:33:57;3.70;;;3.30;;
52934;SDS011;38802;50.198;19.796;2023-04-21T13:36:25;6.90;;;4.00;;
52934;SDS011;38802;50.198;19.796;2023-04-21T13:38:52;5.80;;;3.80;;
52934;SDS011;38802;50.198;19.796;2023-04-21T13:41:21;8.00;;;4.20;;
52934;SDS011;38802;50.198;19.796;2023-04-21T13:43:48;3.60;;;3.30;;
52934;SDS011;38802;50.198;19.796;2023-04-21T13:46:15;4.60;;;3.40;;
52934;SDS011;38802;50.198;19.796;2023-04-21T13:48:43;4.00;;;3.50;;
52934;SDS011;38802;50.198;19.796;2023-04-21T13:51:10;4.10;;;3.60;;
52934;SDS011;38802;50.198;19.796;2023-04-21T13:53:37;3.90;;;3.60;;
52934;SDS011;38802;50.198;19.796;2023-04-21T13:56:03;6.00;;;3.60;;
52934;SDS011;38802;50.198;19.796;2023-04-21T13:58:30;3.60;;;3.20;;
52934;SDS011;38802;50.198;19.796;2023-04-21T14:00:57;4.20;;;3.40;;
52934;SDS011;38802;50.198;19.796;2023-04-21T14:03:24;4.20;;;3.80;;
52934;SDS011;38802;50.198;19.796;2023-04-21T14:05:51;5.50;;;4.10;;
52934;SDS011;38802;50.198;19.796;2023-04-21T14:08:18;7.80;;;3.80;;
52934;SDS011;38802;50.198;19.796;2023-04-21T14:10:45;3.80;;;3.40;;
52934;SDS011;38802;50.198;19.796;2023-04-21T14:13:12;8.60;;;4.00;;
52934;SDS011;38802;50.198;19.796;2023-04-21T14:15:59;8.70;;;7.90;;
52934;SDS011;38802;50.198;19.796;2023-04-21T14:18:26;8.30;;;6.00;;
52934;SDS011;38802;50.198;19.796;2023-04-21T14:20:52;7.00;;;3.80;;
52934;SDS011;38802;50.198;19.796;2023-04-21T14:23:19;3.90;;;3.30;;
52934;SDS011;38802;50.198;19.796;2023-04-21T14:25:46;5.10;;;2.70;;
52934;SDS011;38802;50.198;19.796;2023-04-21T14:28:13;4.00;;;3.60;;
52934;SDS011;38802;50.198;19.796;2023-04-21T14:30:39;6.90;;;3.40;;
52934;SDS011;38802;50.198;19.796;2023-04-21T14:33:08;7.20;;;3.80;;
52934;SDS011;38802;50.198;19.796;2023-04-21T14:35:35;4.00;;;3.50;;
52934;SDS011;38802;50.198;19.796;2023-04-21T14:38:03;5.20;;;3.00;;
52934;SDS011;38802;50.198;19.796;2023-04-21T14:40:30;12.00;;;3.30;;
52934;SDS011;38802;50.198;19.796;2023-04-21T14:42:57;5.20;;;3.30;;
52934;SDS011;38802;50.198;19.796;2023-04-21T14:45:25;4.70;;;4.20;;
52934;SDS011;38802;50.198;19.796;2023-04-21T14:47:52;3.40;;;2.80;;
52934;SDS011;38802;50.198;19.796;2023-04-21T14:50:19;4.70;;;3.00;;
52934;SDS011;38802;50.198;19.796;2023-04-21T14:52:46;4.50;;;4.10;;
52934;SDS011;38802;50.198;19.796;2023-04-21T14:55:15;5.30;;;4.30;;
52934;SDS011;38802;50.198;19.796;2023-04-21T14:57:42;6.10;;;3.70;;
52934;SDS011;38802;50.198;19.796;2023-04-21T15:00:09;4.70;;;3.00;;
52934;SDS011;38802;50.198;19.796;2023-04-21T15:02:36;3.20;;;2.80;;
52934;SDS011;38802;50.198;19.796;2023-04-21T15:05:05;4.10;;;2.80;;